createdAt,value
2022-10-11T00:04:40.741Z,5.05
2022-10-11T00:10:02.448Z,7.22
2022-10-11T00:15:24.566Z,5.65
2022-10-11T00:20:46.185Z,6.40
2022-10-11T00:26:09.922Z,3.83
2022-10-11T00:31:35.505Z,5.93
2022-10-11T00:36:57.642Z,3.35
2022-10-11T00:42:19.321Z,4.53
2022-10-11T00:47:41.553Z,5.65
2022-10-11T00:53:11.565Z,4.88
2022-10-11T00:58:35.172Z,3.63
2022-10-11T01:03:57.615Z,3.60
2022-10-11T01:09:21.303Z,5.13
2022-10-11T01:14:53.658Z,2.78
2022-10-11T01:20:30.996Z,3.60
2022-10-11T01:26:31.596Z,3.88
2022-10-11T01:32:13.293Z,4.68
2022-10-11T01:37:40.032Z,4.25
2022-10-11T01:43:03.672Z,6.20
2022-10-11T01:48:25.773Z,2.97
2022-10-11T01:53:53.153Z,3.60
2022-10-11T01:59:29.737Z,2.88
2022-10-11T02:05:18.331Z,7.20
2022-10-11T02:10:46.445Z,3.03
2022-10-11T02:16:12.952Z,1.73
2022-10-11T02:21:39.708Z,4.38
2022-10-11T02:27:04.402Z,1.88
2022-10-11T02:32:27.595Z,4.70
2022-10-11T02:38:19.313Z,2.65
2022-10-11T02:43:50.747Z,2.00
2022-10-11T02:49:14.422Z,2.30
2022-10-11T02:54:36.349Z,2.05
2022-10-11T02:59:57.984Z,3.78
2022-10-11T03:05:19.824Z,1.80
2022-10-11T03:10:42.279Z,5.07
2022-10-11T03:16:04.103Z,2.13
2022-10-11T03:21:25.767Z,2.30
2022-10-11T03:26:47.481Z,1.80
2022-10-11T03:32:09.106Z,2.38
2022-10-11T03:37:30.760Z,0.85
2022-10-11T03:42:52.410Z,3.22
2022-10-11T03:48:14.147Z,1.83
2022-10-11T03:53:35.818Z,3.40
2022-10-11T03:58:57.544Z,3.00
2022-10-11T04:04:19.189Z,3.65
2022-10-11T04:09:40.897Z,2.78
2022-10-11T04:15:02.585Z,1.67
2022-10-11T04:20:24.308Z,2.20
2022-10-11T04:25:47.092Z,1.70
2022-10-11T04:31:09.018Z,1.13
2022-10-11T04:36:33.138Z,1.83
2022-10-11T04:41:54.830Z,1.85
2022-10-11T04:47:16.612Z,2.65
2022-10-11T04:52:38.291Z,1.70
2022-10-11T04:58:00.188Z,1.77
2022-10-11T05:03:21.941Z,2.65
2022-10-11T05:08:43.547Z,1.33
2022-10-11T05:14:05.286Z,1.75
2022-10-11T05:19:27.079Z,1.58
2022-10-11T05:24:48.767Z,1.20
2022-10-11T05:30:11.022Z,1.63
2022-10-11T05:35:32.678Z,1.50
2022-10-11T05:40:54.847Z,2.35
2022-10-11T05:46:16.794Z,1.27
2022-10-11T05:51:38.522Z,3.72
2022-10-11T05:57:00.249Z,2.10
2022-10-11T06:02:21.935Z,1.75
2022-10-11T06:07:43.611Z,2.33
2022-10-11T06:13:06.499Z,2.83
2022-10-11T06:18:28.181Z,5.03
2022-10-11T06:23:51.068Z,2.58
2022-10-11T06:29:12.722Z,4.18
2022-10-11T06:34:34.456Z,3.30
2022-10-11T06:39:56.101Z,2.83
2022-10-11T06:45:17.783Z,5.38
2022-10-11T06:50:58.499Z,2.45
2022-10-11T06:56:20.638Z,4.03
2022-10-11T07:01:42.987Z,4.57
2022-10-11T07:07:04.665Z,3.30
2022-10-11T07:12:26.405Z,3.42
2022-10-11T07:17:48.048Z,6.63
2022-10-11T07:23:09.689Z,5.72
2022-10-11T07:28:31.752Z,1.50
2022-10-11T07:33:53.698Z,2.35
2022-10-11T07:39:15.354Z,2.42
2022-10-11T07:44:37.012Z,4.60
2022-10-11T07:49:58.722Z,2.22
2022-10-11T07:55:20.375Z,2.30
2022-10-11T08:00:43.236Z,2.10
2022-10-11T08:06:07.770Z,1.58
2022-10-11T08:11:33.300Z,2.55
2022-10-11T08:22:16.638Z,3.10
2022-10-11T08:27:38.285Z,6.57
2022-10-11T08:33:02.994Z,1.98
2022-10-11T08:38:26.668Z,4.05
2022-10-11T08:44:05.023Z,4.43
2022-10-11T08:49:31.638Z,4.13
2022-10-11T08:55:08.257Z,2.75
2022-10-11T09:00:33.210Z,1.42
2022-10-11T09:06:18.302Z,2.03
2022-10-11T09:12:02.966Z,2.33
2022-10-11T09:17:45.706Z,3.80
2022-10-11T09:23:17.805Z,2.10
2022-10-11T09:29:01.233Z,3.53
2022-10-11T09:34:32.577Z,4.05
2022-10-11T09:40:00.360Z,2.05
2022-10-11T09:45:22.274Z,1.77
2022-10-11T09:50:44.528Z,3.60
2022-10-11T09:56:06.862Z,2.25
2022-10-11T10:01:30.066Z,2.63
2022-10-11T10:07:10.777Z,2.55
2022-10-11T10:12:32.497Z,3.78
2022-10-11T10:17:54.295Z,1.85
2022-10-11T10:23:25.058Z,2.88
2022-10-11T10:29:05.010Z,2.85
2022-10-11T10:34:38.083Z,1.55
2022-10-11T10:40:09.172Z,5.35
2022-10-11T10:46:16.807Z,3.00
2022-10-11T10:51:53.333Z,4.28
2022-10-11T10:57:29.198Z,3.45
2022-10-11T11:02:58.853Z,3.85
2022-10-11T11:08:55.038Z,3.95
2022-10-11T11:14:22.333Z,5.40
2022-10-11T11:19:58.285Z,2.75
2022-10-11T11:25:25.775Z,2.50
2022-10-11T11:31:12.357Z,3.58
2022-10-11T11:36:44.363Z,4.53
2022-10-11T11:42:13.587Z,2.03
2022-10-11T11:47:43.864Z,2.58
2022-10-11T11:53:13.675Z,3.10
2022-10-11T11:58:52.493Z,3.47
2022-10-11T12:04:28.863Z,5.97
2022-10-11T12:09:54.662Z,3.78
2022-10-11T12:15:23.608Z,3.33
2022-10-11T12:20:45.369Z,6.68
2022-10-11T12:26:16.094Z,3.97
2022-10-11T12:31:41.308Z,5.70
2022-10-11T12:37:17.656Z,4.03
2022-10-11T12:42:39.472Z,5.55
2022-10-11T12:48:38.411Z,4.93
2022-10-11T12:54:27.566Z,2.72
2022-10-11T12:59:51.620Z,3.65
2022-10-11T13:05:22.308Z,8.38
2022-10-11T13:10:46.254Z,5.13
2022-10-11T13:16:20.655Z,3.10
2022-10-11T13:21:43.722Z,2.30
2022-10-11T13:27:07.209Z,4.30
2022-10-11T13:32:31.187Z,3.13
2022-10-11T13:37:52.928Z,2.75
2022-10-11T13:43:15.819Z,3.30
2022-10-11T13:48:41.423Z,5.18
2022-10-11T13:59:28.344Z,3.75
2022-10-11T14:04:50.510Z,7.97
2022-10-11T14:10:20.984Z,3.47
2022-10-11T14:15:42.656Z,2.28
2022-10-11T14:21:19.461Z,3.35
2022-10-11T14:26:50.665Z,3.28
2022-10-11T14:32:18.926Z,2.83
2022-10-11T14:37:40.621Z,3.03
2022-10-11T14:43:02.296Z,4.65
2022-10-11T14:48:50.150Z,4.28
2022-10-11T14:54:05.867Z,2.38
2022-10-11T14:59:32.776Z,4.90
2022-10-11T15:04:54.466Z,4.32
2022-10-11T15:10:29.188Z,3.10
2022-10-11T15:15:50.901Z,3.25
2022-10-11T15:21:15.350Z,4.05
2022-10-11T15:26:37.026Z,5.53
2022-10-11T15:31:58.742Z,3.70
2022-10-11T15:37:20.431Z,4.18
2022-10-11T15:42:42.448Z,4.85
2022-10-11T15:48:04.399Z,5.60
2022-10-11T15:53:30.191Z,3.65
2022-10-11T15:58:51.859Z,2.88
2022-10-11T16:04:13.551Z,2.38
2022-10-11T16:09:35.253Z,2.85
2022-10-11T16:14:57.215Z,5.65
2022-10-11T16:20:22.534Z,6.85
2022-10-11T16:25:44.266Z,5.78
2022-10-11T16:31:18.452Z,4.57
2022-10-11T16:36:43.552Z,6.15
2022-10-11T16:42:05.816Z,5.25
2022-10-11T16:47:27.658Z,7.07
2022-10-11T16:52:49.297Z,4.95
2022-10-11T16:58:11.236Z,3.33
2022-10-11T17:03:32.881Z,6.65
2022-10-11T17:08:55.186Z,7.10
2022-10-11T17:14:18.050Z,3.42
2022-10-11T17:19:45.053Z,3.47
2022-10-11T17:25:07.444Z,6.95
2022-10-11T17:30:29.103Z,5.22
2022-10-11T17:35:50.763Z,3.67
2022-10-11T17:41:12.799Z,3.72
2022-10-11T17:46:34.753Z,2.88
2022-10-11T17:51:56.817Z,5.07
2022-10-11T17:57:18.512Z,13.40
2022-10-11T18:02:40.482Z,19.88
2022-10-11T18:08:02.123Z,12.65
2022-10-11T18:13:23.871Z,23.92
2022-10-11T18:18:46.065Z,14.43
2022-10-11T18:24:12.782Z,16.33
2022-10-11T18:29:34.457Z,19.73
2022-10-11T18:34:58.019Z,18.65
2022-10-11T18:40:19.679Z,15.95
2022-10-11T18:45:41.416Z,19.45
2022-10-11T18:51:09.334Z,19.00
2022-10-11T18:56:32.674Z,13.32
2022-10-11T19:01:54.320Z,7.70
2022-10-11T19:07:15.958Z,10.43
2022-10-11T19:12:37.665Z,18.77
2022-10-11T19:17:59.409Z,14.80
2022-10-11T19:23:22.410Z,12.45
2022-10-11T19:28:45.239Z,15.70
2022-10-11T19:34:06.949Z,18.10
2022-10-11T19:39:29.678Z,19.10
2022-10-11T19:44:51.341Z,17.02
2022-10-11T19:50:13.039Z,19.55
2022-10-11T19:55:35.547Z,15.32
2022-10-11T20:01:07.533Z,11.02
2022-10-11T20:06:34.567Z,16.23
2022-10-11T20:11:59.168Z,12.63
2022-10-11T20:17:20.803Z,15.10
2022-10-11T20:22:42.555Z,11.88
2022-10-11T20:28:04.512Z,12.85
2022-10-11T20:33:26.967Z,11.43
2022-10-11T20:38:50.107Z,8.05
2022-10-11T20:44:13.325Z,11.65
2022-10-11T20:49:35.048Z,8.88
2022-10-11T20:54:56.693Z,9.95
2022-10-11T21:00:18.614Z,10.95
2022-10-11T21:05:40.574Z,7.75
2022-10-11T21:11:02.686Z,7.85
2022-10-11T21:16:24.860Z,11.32
2022-10-11T21:21:52.496Z,7.70
2022-10-11T21:27:15.094Z,8.77
2022-10-11T21:32:37.350Z,8.77
2022-10-11T21:37:59.708Z,11.93
2022-10-11T21:43:21.383Z,6.57
2022-10-11T21:48:43.321Z,7.75
2022-10-11T21:54:05.443Z,7.60
2022-10-11T21:59:27.108Z,9.90
2022-10-11T22:04:48.820Z,8.63
2022-10-11T22:10:10.573Z,6.28
2022-10-11T22:15:36.093Z,8.18
2022-10-11T22:26:36.196Z,8.07
2022-10-11T22:31:57.827Z,7.88
2022-10-11T22:37:19.462Z,10.75
2022-10-11T22:42:41.097Z,9.82
2022-10-11T22:48:03.099Z,6.63
2022-10-11T22:53:24.773Z,9.65
2022-10-11T22:58:46.551Z,6.53
2022-10-11T23:04:08.287Z,6.82
2022-10-11T23:09:31.698Z,8.73
2022-10-11T23:14:53.382Z,8.40
2022-10-11T23:20:15.116Z,8.68
2022-10-11T23:25:36.792Z,10.00
2022-10-11T23:30:58.604Z,10.68
2022-10-11T23:36:24.666Z,7.80
2022-10-11T23:41:46.305Z,9.63
2022-10-11T23:47:08.002Z,6.82
2022-10-11T23:52:29.666Z,5.72
2022-10-11T23:57:51.365Z,10.45
